createdAt,value
2018-06-14T00:02:01.848Z,12.10
2018-06-14T00:07:05.558Z,12.37
2018-06-14T00:12:09.264Z,13.97
2018-06-14T00:17:13.418Z,18.97
2018-06-14T00:22:19.214Z,8.80
2018-06-14T00:27:22.869Z,12.93
2018-06-14T00:32:27.169Z,9.40
2018-06-14T00:37:31.571Z,8.50
2018-06-14T00:42:36.012Z,10.40
2018-06-14T00:47:39.692Z,12.27
2018-06-14T00:52:43.353Z,10.33
2018-06-14T00:57:48.239Z,10.60
2018-06-14T01:02:52.268Z,10.30
2018-06-14T01:07:56.311Z,15.33
2018-06-14T01:12:59.965Z,12.17
2018-06-14T01:18:03.952Z,10.60
2018-06-14T01:23:07.633Z,12.93
2018-06-14T01:28:11.411Z,10.93
2018-06-14T01:33:15.416Z,12.20
2018-06-14T01:38:23.460Z,10.63
2018-06-14T01:43:32.357Z,9.97
2018-06-14T01:48:37.152Z,8.70
2018-06-14T01:53:40.828Z,11.13
2018-06-14T01:58:44.924Z,11.50
2018-06-14T02:03:48.732Z,10.73
2018-06-14T02:08:52.685Z,10.33
2018-06-14T02:13:56.433Z,9.70
2018-06-14T02:19:00.467Z,8.23
2018-06-14T02:24:04.623Z,11.23
2018-06-14T02:29:09.528Z,12.43
2018-06-14T02:34:13.453Z,11.00
2018-06-14T02:39:17.597Z,9.73
2018-06-14T02:44:21.345Z,17.53
2018-06-14T02:49:25.272Z,9.20
2018-06-14T02:54:30.000Z,9.33
2018-06-14T02:59:33.879Z,8.30
2018-06-14T03:04:37.756Z,8.83
2018-06-14T03:09:41.517Z,8.87
2018-06-14T03:14:45.287Z,8.80
2018-06-14T03:19:50.158Z,7.80
2018-06-14T03:24:53.869Z,9.73
2018-06-14T03:29:57.569Z,9.23
2018-06-14T03:35:01.239Z,16.33
2018-06-14T03:40:05.717Z,12.90
2018-06-14T03:45:09.702Z,10.10
2018-06-14T03:50:13.048Z,10.63
2018-06-14T03:55:16.687Z,10.43
2018-06-14T04:00:20.401Z,9.47
2018-06-14T04:05:24.600Z,11.17
2018-06-14T04:10:28.301Z,12.50
2018-06-14T04:15:32.017Z,10.53
2018-06-14T04:20:36.125Z,13.07
2018-06-14T04:25:39.784Z,11.13
2018-06-14T04:30:43.789Z,10.67
2018-06-14T04:35:47.455Z,9.83
2018-06-14T04:40:51.425Z,12.27
2018-06-14T04:45:59.114Z,10.87
2018-06-14T04:51:05.424Z,10.87
2018-06-14T04:56:11.543Z,10.67
2018-06-14T05:01:15.536Z,11.03
2018-06-14T05:06:19.217Z,18.33
2018-06-14T05:11:25.945Z,12.30
2018-06-14T05:16:29.991Z,13.07
2018-06-14T05:21:34.199Z,25.87
2018-06-14T05:26:38.232Z,12.53
2018-06-14T05:31:42.211Z,11.13
2018-06-14T05:36:45.902Z,15.90
2018-06-14T05:41:50.115Z,12.97
2018-06-14T05:46:53.856Z,11.07
2018-06-14T05:51:57.614Z,12.13
2018-06-14T05:57:01.469Z,10.63
2018-06-14T06:02:05.231Z,12.00
2018-06-14T06:07:08.916Z,12.27
2018-06-14T06:12:12.734Z,13.47
2018-06-14T06:17:16.428Z,10.03
2018-06-14T06:22:20.451Z,9.80
2018-06-14T06:27:25.168Z,9.27
2018-06-14T06:32:28.837Z,9.43
2018-06-14T06:37:32.812Z,11.40
2018-06-14T06:42:36.771Z,20.77
2018-06-14T06:47:40.475Z,8.43
2018-06-14T06:52:45.069Z,9.90
2018-06-14T06:57:48.771Z,10.00
2018-06-14T07:02:52.815Z,9.20
2018-06-14T07:07:56.692Z,12.97
2018-06-14T07:13:00.402Z,10.77
2018-06-14T07:18:04.479Z,9.90
2018-06-14T07:23:08.187Z,8.00
2018-06-14T07:28:12.283Z,7.70
2018-06-14T07:33:16.154Z,7.93
2018-06-14T07:38:20.317Z,9.83
2018-06-14T07:43:23.991Z,9.47
2018-06-14T07:48:27.723Z,7.93
2018-06-14T07:53:32.802Z,10.43
2018-06-14T07:58:36.547Z,6.43
2018-06-14T08:03:40.670Z,8.40
2018-06-14T08:08:44.705Z,9.27
2018-06-14T08:13:48.048Z,9.03
2018-06-14T08:18:51.842Z,11.10
2018-06-14T08:23:55.850Z,10.47
2018-06-14T08:28:59.569Z,10.30
2018-06-14T08:34:03.396Z,8.00
2018-06-14T08:39:09.693Z,9.00
2018-06-14T08:44:14.048Z,8.53
2018-06-14T08:49:19.640Z,8.97
2018-06-14T08:54:23.844Z,4.67
2018-06-14T08:59:27.888Z,11.20
2018-06-14T09:04:31.577Z,7.50
2018-06-14T09:09:35.515Z,8.47
2018-06-14T09:14:39.403Z,11.10
2018-06-14T09:19:43.099Z,5.67
2018-06-14T09:24:47.911Z,5.73
2018-06-14T09:29:52.184Z,10.03
2018-06-14T09:34:55.913Z,8.37
2018-06-14T09:39:59.592Z,4.53
2018-06-14T09:45:03.312Z,8.13
2018-06-14T09:50:07.018Z,5.20
2018-06-14T09:55:11.192Z,6.47
2018-06-14T10:00:15.801Z,5.87
2018-06-14T10:05:20.849Z,6.80
2018-06-14T10:10:24.641Z,9.47
2018-06-14T10:15:29.762Z,4.53
2018-06-14T10:20:33.477Z,5.47
2018-06-14T10:25:37.270Z,5.00
2018-06-14T10:30:40.977Z,6.27
2018-06-14T10:35:44.935Z,8.87
2018-06-14T10:40:48.599Z,7.50
2018-06-14T10:45:52.703Z,7.43
2018-06-14T10:50:56.856Z,8.03
2018-06-14T10:56:00.574Z,6.70
2018-06-14T11:01:04.285Z,5.53
2018-06-14T11:11:16.596Z,4.27
2018-06-14T11:16:22.055Z,3.87
2018-06-14T11:21:25.988Z,5.73
2018-06-14T11:26:29.655Z,6.30
2018-06-14T11:31:33.753Z,6.73
2018-06-14T11:36:37.409Z,5.53
2018-06-14T11:41:41.213Z,11.90
2018-06-14T11:46:44.866Z,6.60
2018-06-14T11:51:49.563Z,5.50
2018-06-14T11:56:53.700Z,4.00
2018-06-14T12:01:57.760Z,7.37
2018-06-14T12:07:02.579Z,7.33
2018-06-14T12:12:08.134Z,6.13
2018-06-14T12:17:11.924Z,7.63
2018-06-14T12:22:15.824Z,4.80
2018-06-14T12:27:19.625Z,4.30
2018-06-14T12:32:23.987Z,3.93
2018-06-14T12:37:28.153Z,3.77
2018-06-14T12:42:32.600Z,3.50
2018-06-14T12:47:35.919Z,3.57
2018-06-14T12:52:40.665Z,8.83
2018-06-14T12:57:44.380Z,4.27
2018-06-14T13:02:48.219Z,3.40
2018-06-14T13:07:51.974Z,4.07
2018-06-14T13:12:56.243Z,4.63
2018-06-14T13:17:59.938Z,4.57
2018-06-14T13:23:03.812Z,3.37
2018-06-14T13:28:07.160Z,2.87
2018-06-14T13:33:10.921Z,3.13
2018-06-14T13:38:15.759Z,4.00
2018-06-14T13:43:19.692Z,4.60
2018-06-14T13:48:23.388Z,3.30
2018-06-14T13:53:27.147Z,3.60
2018-06-14T13:58:31.284Z,3.83
2018-06-14T14:03:35.203Z,6.63
2018-06-14T14:08:39.168Z,4.53
2018-06-14T14:13:42.840Z,4.40
2018-06-14T14:18:47.032Z,3.80
2018-06-14T14:23:50.392Z,4.27
2018-06-14T14:28:54.074Z,6.90
2018-06-14T14:33:57.809Z,2.77
2018-06-14T14:39:01.770Z,4.20
2018-06-14T14:44:05.700Z,5.50
2018-06-14T14:49:12.141Z,4.63
2018-06-14T14:54:15.843Z,5.00
2018-06-14T14:59:19.578Z,5.13
2018-06-14T15:04:22.899Z,3.57
2018-06-14T15:09:26.820Z,3.93
2018-06-14T15:14:30.940Z,3.63
2018-06-14T15:19:35.318Z,3.73
2018-06-14T15:24:39.204Z,3.23
2018-06-14T15:29:42.950Z,2.93
2018-06-14T15:34:47.016Z,3.37
2018-06-14T15:39:51.404Z,4.20
2018-06-14T15:44:55.076Z,2.73
2018-06-14T15:49:59.144Z,5.57
2018-06-14T15:55:13.947Z,2.43
2018-06-14T16:00:17.659Z,4.70
2018-06-14T16:05:21.376Z,2.50
2018-06-14T16:10:25.160Z,3.27
2018-06-14T16:15:28.871Z,4.03
2018-06-14T16:20:33.074Z,3.67
2018-06-14T16:25:37.401Z,2.90
2018-06-14T16:30:41.081Z,4.97
2018-06-14T16:35:45.781Z,7.57
2018-06-14T16:40:49.627Z,3.20
2018-06-14T16:45:53.453Z,3.27
2018-06-14T16:50:57.104Z,4.87
2018-06-14T16:56:00.784Z,9.40
2018-06-14T17:01:05.643Z,2.57
2018-06-14T17:06:09.542Z,2.63
2018-06-14T17:11:13.547Z,2.93
2018-06-14T17:16:21.673Z,2.50
2018-06-14T17:21:25.359Z,3.90
2018-06-14T17:26:29.370Z,3.90
2018-06-14T17:31:33.389Z,2.70
2018-06-14T17:36:37.457Z,2.77
2018-06-14T17:41:44.012Z,3.90
2018-06-14T17:46:48.018Z,3.30
2018-06-14T17:51:51.536Z,8.73
2018-06-14T17:56:58.697Z,5.73
2018-06-14T18:02:02.418Z,1.87
2018-06-14T18:07:06.334Z,2.70
2018-06-14T18:12:12.886Z,2.63
2018-06-14T18:17:17.516Z,2.43
2018-06-14T18:22:22.857Z,3.27
2018-06-14T18:27:28.587Z,3.47
2018-06-14T18:32:33.108Z,2.37
2018-06-14T18:37:40.101Z,2.43
2018-06-14T18:42:45.808Z,3.30
2018-06-14T18:47:51.910Z,6.30
2018-06-14T18:52:57.875Z,9.30
2018-06-14T18:58:04.646Z,7.80
2018-06-14T19:03:11.810Z,9.93
2018-06-14T19:08:18.097Z,3.70
2018-06-14T19:13:24.820Z,3.90
2018-06-14T19:18:31.155Z,5.27
2018-06-14T19:23:37.939Z,6.53
2018-06-14T19:28:44.378Z,8.90
2018-06-14T19:33:51.004Z,5.90
2018-06-14T19:38:56.576Z,10.13
2018-06-14T19:44:03.628Z,7.67
2018-06-14T19:49:09.138Z,5.47
2018-06-14T19:54:15.920Z,4.80
2018-06-14T19:59:22.541Z,7.37
2018-06-14T20:04:29.061Z,7.40
2018-06-14T20:09:35.025Z,4.37
2018-06-14T20:14:42.069Z,7.93
2018-06-14T20:19:47.376Z,8.40
2018-06-14T20:24:53.623Z,8.93
2018-06-14T20:29:59.669Z,6.33
2018-06-14T20:35:05.510Z,5.73
2018-06-14T20:40:11.532Z,6.80
2018-06-14T20:45:17.414Z,6.13
2018-06-14T20:50:23.600Z,5.00
2018-06-14T20:55:30.217Z,11.57
2018-06-14T21:00:34.345Z,6.93
2018-06-14T21:05:38.334Z,8.33
2018-06-14T21:10:43.075Z,4.00
2018-06-14T21:15:47.323Z,6.17
2018-06-14T21:20:51.484Z,3.70
2018-06-14T21:25:55.120Z,5.63
2018-06-14T21:30:58.869Z,7.20
2018-06-14T21:36:03.190Z,3.33
2018-06-14T21:41:07.196Z,5.30
2018-06-14T21:46:11.254Z,6.67
2018-06-14T21:51:15.167Z,7.90
2018-06-14T21:56:19.496Z,7.80
2018-06-14T22:01:25.033Z,6.83
2018-06-14T22:06:29.428Z,6.00
2018-06-14T22:11:33.362Z,9.17
2018-06-14T22:16:36.675Z,4.73
2018-06-14T22:21:40.349Z,4.50
2018-06-14T22:26:44.128Z,6.50
2018-06-14T22:31:47.850Z,5.73
2018-06-14T22:36:52.465Z,8.77
2018-06-14T22:41:56.273Z,5.10
2018-06-14T22:47:00.252Z,5.00
2018-06-14T22:53:13.350Z,4.37
2018-06-14T22:58:17.037Z,8.33
2018-06-14T23:03:21.652Z,8.50
2018-06-14T23:08:25.543Z,4.40
2018-06-14T23:13:29.627Z,6.83
2018-06-14T23:18:33.589Z,6.03
2018-06-14T23:23:38.367Z,6.23
2018-06-14T23:28:42.073Z,7.43
2018-06-14T23:33:46.679Z,9.43
2018-06-14T23:38:50.475Z,6.10
2018-06-14T23:43:54.753Z,6.50
2018-06-14T23:48:58.455Z,6.40
2018-06-14T23:54:02.129Z,8.17
2018-06-14T23:59:06.219Z,7.40
